Data for 02/13/2013

Time Sea-Level Adjusted Pressure Absolute Pressure Temperature Relative Humidity Dew Point   
(mb) (inHg) (mb) (inHg) (C) (F) (%) (C) (F)
00:05 1018 30.06 847 25.01 1.6 34.8 58 -5.9 21.4
00:10 1018 30.06 847 25.01 1.4 34.6 58 -5.9 21.3
00:15 1018 30.06 848 25.04 1.3 34.3 58 -6.1 21.1
00:20 1018 30.06 848 25.04 1.3 34.4 57 -6.3 20.7
00:25 1018 30.06 848 25.04 1.4 34.6 57 -6.2 20.9
00:30 1018 30.06 848 25.04 1.5 34.7 56 -6.3 20.7
00:35 1018 30.06 848 25.04 1.5 34.7 57 -6.2 20.9
00:40 1018 30.06 847 25.01 1.4 34.5 57 -6.2 20.9
00:45 1018 30.06 848 25.04 1.3 34.4 57 -6.2 20.8
00:50 1018 30.06 848 25.04 1.3 34.4 58 -6.1 21
00:55 1018 30.06 847 25.01 1.4 34.5 57 -6.3 20.7
01:00 1018 30.06 847 25.01 1.4 34.6 57 -6.1 21
01:05 1018 30.06 848 25.04 1.4 34.5 58 -6 21.2
01:10 1018 30.06 848 25.04 1.4 34.4 59 -5.8 21.6
01:15 1018 30.06 847 25.01 1.2 34.2 60 -5.7 21.7
01:20 1018 30.06 847 25.01 1.1 33.9 60 -5.9 21.3
01:25 1018 30.06 848 25.04 1.1 33.9 60 -5.7 21.7
01:30 1018 30.06 848 25.04 1 33.9 60 -5.9 21.4
01:35 1018 30.06 847 25.01 1.1 34 60 -5.9 21.4
01:40 1018 30.06 847 25.01 1.2 34.2 60 -5.7 21.8
01:45 1018 30.06 848 25.04 1.2 34.2 59 -5.9 21.4
01:50 1018 30.06 847 25.01 1.3 34.3 58 -6.1 21
01:55 1018 30.06 847 25.01 1.5 34.7 57 -6.1 21.1
02:00 1018 30.06 847 25.01 1.5 34.7 58 -6 21.3
02:05 1018 30.06 847 25.01 1.4 34.5 59 -5.7 21.8
02:10 1018 30.06 847 25.01 1.3 34.3 60 -5.7 21.7
02:15 1018 30.06 847 25.01 1.1 34.1 62 -5.4 22.2
02:20 1018 30.06 847 25.01 1.1 33.9 61 -5.6 21.9
02:25 1018 30.06 847 25.01 1.3 34.4 57 -6.2 20.8
02:30 1017 30.03 846 24.98 1.7 35 56 -6.1 21
02:35 1017 30.03 846 24.98 1.6 34.9 57 -6.1 21
02:40 1017 30.03 846 24.98 1.6 34.9 57 -6 21.3
02:45 1017 30.03 846 24.98 1.7 35 57 -6 21.2
02:50 1017 30.03 846 24.98 1.7 35.1 57 -5.8 21.5
02:55 1017 30.03 846 24.98 1.7 35 58 -5.7 21.8
03:00 1017 30.03 846 24.98 1.8 35.2 58 -5.7 21.7
03:05 1017 30.03 846 24.98 1.8 35.3 57 -5.7 21.7
03:10 1017 30.03 846 24.98 2.1 35.7 55 -6 21.2
03:15 1017 30.03 846 24.98 2.3 36.1 54 -6.2 20.9
03:20 1017 30.03 847 25.01 2.4 36.4 54 -5.9 21.5
03:25 1017 30.03 847 25.01 2.4 36.4 53 -6.1 21.1
03:30 1017 30.03 847 25.01 2.5 36.6 53 -6 21.2
03:35 1017 30.03 847 25.01 2.6 36.7 54 -5.7 21.7
03:40 1017 30.03 847 25.01 2.6 36.6 54 -5.8 21.6
03:45 1017 30.03 847 25.01 2.6 36.6 54 -5.9 21.4
03:50 1017 30.03 847 25.01 2.6 36.6 55 -5.5 22.2
03:55 1017 30.03 847 25.01 2.5 36.5 55 -5.7 21.8
04:00 1017 30.03 847 25.01 2.5 36.4 55 -5.6 21.9
04:05 1017 30.03 847 25.01 2.4 36.3 56 -5.6 22
04:10 1017 30.03 847 25.01 2.4 36.3 54 -5.9 21.4
04:15 1017 30.03 847 25.01 2.5 36.4 55 -5.6 22
04:20 1017 30.03 847 25.01 2.4 36.3 55 -5.7 21.7
04:25 1017 30.03 847 25.01 2.4 36.3 55 -5.8 21.5
04:30 1017 30.03 847 25.01 2.4 36.2 55 -5.9 21.4
04:35 1017 30.03 847 25.01 2.4 36.2 54 -5.9 21.4
04:40 1017 30.03 847 25.01 2.5 36.5 54 -5.9 21.4
04:45 1017 30.03 847 25.01 2.6 36.6 55 -5.7 21.8
04:50 1017 30.03 847 25.01 2.5 36.5 56 -5.4 22.2
04:55 1017 30.03 846 24.98 2.4 36.3 54 -6 21.3
05:00 1017 30.03 846 24.98 2.5 36.5 54 -5.8 21.5
05:05 1017 30.03 846 24.98 2.6 36.7 52 -6.2 20.8
05:10 1017 30.03 846 24.98 2.8 37 51 -6.4 20.5
05:15 1017 30.03 846 24.98 3 37.4 51 -6.2 20.9
05:20 1017 30.03 846 24.98 3 37.4 51 -6.1 21
05:25 1017 30.03 846 24.98 2.9 37.3 51 -6.2 20.9
05:30 1017 30.03 846 24.98 3 37.5 50 -6.3 20.6
05:35 1017 30.03 846 24.98 3.1 37.6 50 -6.3 20.7
05:40 1017 30.03 846 24.98 3.1 37.6 50 -6.4 20.5
05:45 1017 30.03 846 24.98 3.2 37.8 50 -6.3 20.7
05:50 1017 30.03 846 24.98 3.2 37.8 49 -6.5 20.4
05:55 1017 30.03 846 24.98 3.3 38 49 -6.3 20.6
06:00 1017 30.03 846 24.98 3.3 37.9 50 -6.2 20.8
06:05 1017 30.03 846 24.98 3.2 37.8 50 -6.3 20.7
06:10 1017 30.03 846 24.98 3.1 37.6 51 -6.1 21
06:15 1017 30.03 846 24.98 3.1 37.5 51 -6.2 20.9
06:20 1017 30.03 846 24.98 3.2 37.7 50 -6.3 20.7
06:25 1017 30.03 846 24.98 3.2 37.8 51 -6 21.2
06:30 1017 30.03 846 24.98 3.3 38 49 -6.3 20.6
06:35 1017 30.03 846 24.98 3.4 38.1 50 -6 21.1
06:40 1017 30.03 846 24.98 3.3 37.9 50 -6 21.1
06:45 1016 30 846 24.98 3.2 37.7 51 -6 21.1
06:50 1016 30 846 24.98 3.1 37.6 52 -5.9 21.4
06:55 1016 30 846 24.98 3.1 37.6 51 -6 21.2
07:00 1016 30 846 24.98 3.2 37.7 51 -6.1 21
07:05 1016 30 846 24.98 3.2 37.8 51 -6.1 21.1
07:10 1016 30 846 24.98 3.3 37.9 50 -6.2 20.9
07:15 1016 30 845 24.95 3.3 38 49 -6.4 20.5
07:20 1016 30 846 24.98 3.5 38.3 49 -6.1 21
07:25 1016 30 846 24.98 3.4 38.2 50 -6 21.2
07:30 1016 30 846 24.98 3.5 38.2 49 -6.2 20.8
07:35 1017 30.03 846 24.98 3.4 38.2 51 -5.7 21.7
07:40 1017 30.03 846 24.98 3.2 37.7 52 -5.7 21.8
07:45 1017 30.03 846 24.98 3.1 37.7 52 -5.7 21.7
07:50 1017 30.03 846 24.98 3.1 37.6 51 -6 21.2
07:55 1016 30 846 24.98 3.3 38 50 -6.1 21
08:00 1016 30 846 24.98 3.4 38.2 51 -5.9 21.4
08:05 1016 30 846 24.98 3.4 38.2 51 -5.7 21.8
08:10 1016 30 845 24.95 3.3 38 51 -5.9 21.4
08:15 1016 30 845 24.95 3.5 38.2 49 -6.2 20.9
08:20 1016 30 845 24.95 3.6 38.4 49 -6.2 20.9
08:25 1016 30 846 24.98 3.5 38.2 49 -6.3 20.7
08:30 1016 30 845 24.95 3.5 38.3 49 -6.1 21
08:35 1016 30 845 24.95 3.4 38.2 50 -5.9 21.4
08:40 1016 30 845 24.95 3.4 38 50 -6 21.3
08:45 1016 30 845 24.95 3.4 38.1 51 -5.8 21.5
08:50 1016 30 845 24.95 3.3 38 51 -5.8 21.6
08:55 1016 30 845 24.95 3.3 37.9 51 -5.8 21.6
09:00 1016 30 845 24.95 3.2 37.8 54 -5.1 22.7
09:05 1016 30 845 24.95 3.1 37.5 53 -5.7 21.8
09:10 1016 30 845 24.95 3.2 37.7 52 -5.7 21.8
09:15 1016 30 845 24.95 3.2 37.8 53 -5.5 22.2
09:20 1016 30 845 24.95 3.2 37.8 53 -5.4 22.2
09:25 1016 30 845 24.95 3.1 37.5 54 -5.4 22.3
09:30 1016 30 845 24.95 3 37.4 54 -5.5 22.1
09:35 1016 30 845 24.95 3.1 37.5 54 -5.4 22.3
09:40 1016 30 845 24.95 3.1 37.7 53 -5.4 22.2
09:45 1016 30 845 24.95 3.3 37.9 53 -5.4 22.2
09:50 1016 30 845 24.95 3.2 37.8 52 -5.7 21.7
09:55 1016 30 845 24.95 3.3 38 52 -5.5 22.1
10:00 1016 30 845 24.95 3.3 38 52 -5.6 21.8
10:05 1016 30 845 24.95 3.5 38.3 51 -5.7 21.8
10:10 1016 30 845 24.95 3.6 38.5 50 -5.7 21.7
10:15 1016 30 845 24.95 3.8 38.8 48 -6.3 20.7
10:20 1016 30 845 24.95 3.9 39 49 -5.9 21.3
10:25 1016 30 845 24.95 3.8 38.8 49 -6 21.2
10:30 1016 30 845 24.95 3.9 39 49 -5.9 21.4
10:35 1016 30 845 24.95 3.9 38.9 50 -5.5 22
10:40 1016 30 845 24.95 3.8 38.8 50 -5.6 21.8
10:45 1016 30 846 24.98 3.9 39 49 -5.9 21.3
10:50 1017 30.03 846 24.98 4 39.1 50 -5.7 21.8
10:55 1017 30.03 846 24.98 3.9 39.1 50 -5.6 21.9
11:00 1017 30.03 846 24.98 3.9 39.1 50 -5.5 22.1
11:05 1017 30.03 846 24.98 4 39.1 50 -5.6 21.9
11:10 1017 30.03 846 24.98 4 39.2 48 -6 21.1
11:15 1017 30.03 846 24.98 4.2 39.5 45 -6.6 20.1
11:20 1017 30.03 846 24.98 4.4 39.9 47 -6.1 21.1
11:25 1016 30 846 24.98 4.3 39.8 48 -5.8 21.5
11:30 1016 30 846 24.98 4.3 39.8 46 -6.3 20.6
11:35 1016 30 846 24.98 4.5 40.2 47 -5.8 21.6
11:40 1016 30 846 24.98 4.4 40 47 -5.9 21.4
11:45 1016 30 846 24.98 4.4 40 48 -5.7 21.7
11:50 1017 30.03 846 24.98 4.6 40.4 48 -5.5 22.1
11:55 1017 30.03 846 24.98 4.6 40.2 48 -5.6 21.9
12:00 1017 30.03 846 24.98 4.5 40 46 -6.1 21
12:05 1017 30.03 846 24.98 4.7 40.4 48 -5.5 22.1
12:10 1017 30.03 846 24.98 4.9 40.8 46 -5.6 21.9
12:15 1017 30.03 846 24.98 4.7 40.5 48 -5.5 22.1
12:20 1017 30.03 846 24.98 4.5 40.2 49 -5.3 22.5
12:25 1017 30.03 846 24.98 4.5 40 48 -5.6 21.9
12:30 1017 30.03 846 24.98 4.5 40.1 48 -5.5 22
12:35 1017 30.03 846 24.98 4.7 40.4 47 -5.7 21.7
12:40 1017 30.03 846 24.98 4.7 40.4 48 -5.3 22.4
12:45 1017 30.03 846 24.98 4.7 40.5 46 -5.9 21.5
12:50 1017 30.03 846 24.98 4.8 40.6 47 -5.6 22
12:55 1017 30.03 846 24.98 4.7 40.5 44 -6.4 20.5
13:00 1017 30.03 846 24.98 4.8 40.6 46 -5.8 21.5
13:05 1017 30.03 846 24.98 4.8 40.7 45 -6.1 20.9
13:10 1017 30.03 846 24.98 4.9 40.9 44 -6.3 20.6
13:15 1017 30.03 846 24.98 5.2 41.4 41 -6.9 19.7
13:20 1017 30.03 846 24.98 5.1 41.2 42 -6.7 19.9
13:25 1017 30.03 846 24.98 5.1 41.2 42 -6.9 19.6
13:30 1017 30.03 846 24.98 5.2 41.3 41 -6.8 19.7
13:35 1017 30.03 846 24.98 5.3 41.5 42 -6.7 20
13:40 1017 30.03 846 24.98 5.4 41.7 41 -6.8 19.7
13:45 1017 30.03 846 24.98 5.3 41.6 43 -6.2 20.9
13:50 1017 30.03 846 24.98 5.3 41.6 40 -7.3 18.8
13:55 1017 30.03 846 24.98 5.6 42.1 38 -7.7 18.1
14:00 1017 30.03 846 24.98 5.7 42.3 38 -7.5 18.4
14:05 1017 30.03 846 24.98 5.6 42 39 -7.2 19.1
14:10 1017 30.03 846 24.98 5.6 42.2 40 -7 19.4
14:15 1017 30.03 846 24.98 6 42.8 38 -7.3 18.8
14:20 1017 30.03 846 24.98 6.5 43.6 36 -7.5 18.5
14:25 1017 30.03 846 24.98 6.6 43.8 36 -7.5 18.5
14:30 1017 30.03 846 24.98 6.3 43.3 38 -7 19.3
14:35 1017 30.03 846 24.98 6.2 43.1 37 -7.3 18.8
14:40 1017 30.03 846 24.98 6.1 42.9 37 -7.4 18.7
14:45 1017 30.03 846 24.98 6.1 43 37 -7.5 18.4
14:50 1017 30.03 846 24.98 6.6 44 35 -7.6 18.3
14:55 1017 30.03 846 24.98 7 44.6 35 -7.3 18.8
15:00 1017 30.03 846 24.98 7.3 45.1 35 -7.3 18.9
15:05 1017 30.03 846 24.98 7.4 45.3 34 -7.5 18.5
15:10 1017 30.03 846 24.98 6.8 44.2 36 -7.1 19.3
15:15 1017 30.03 846 24.98 6.4 43.4 36 -7.6 18.4
15:20 1017 30.03 846 24.98 6.3 43.3 36 -7.6 18.3
15:25 1016 30 846 24.98 6.4 43.5 36 -7.5 18.4
15:30 1016 30 846 24.98 6.3 43.4 37 -7.4 18.6
15:35 1017 30.03 846 24.98 6.2 43.1 36 -7.7 18.1
15:40 1017 30.03 846 24.98 6.4 43.6 36 -7.5 18.4
15:45 1017 30.03 846 24.98 6.7 44 34 -8 17.6
15:50 1017 30.03 846 24.98 6.5 43.6 33 -8.6 16.5
15:55 1017 30.03 846 24.98 6.1 43 35 -8.2 17.2
16:00 1017 30.03 846 24.98 6.1 42.9 35 -8.2 17.3
16:05 1017 30.03 846 24.98 5.8 42.4 36 -8.2 17.2
16:10 1017 30.03 846 24.98 5.6 42.1 37 -8.1 17.5
16:15 1017 30.03 846 24.98 5.5 41.9 38 -7.8 17.9
16:20 1017 30.03 846 24.98 5.4 41.7 38 -7.8 18
16:25 1017 30.03 846 24.98 5.4 41.7 38 -7.7 18.2
16:30 1017 30.03 846 24.98 5.4 41.7 39 -7.5 18.6
16:35 1017 30.03 846 24.98 5.6 42 36 -8.3 17.1
16:40 1017 30.03 846 24.98 5.4 41.8 37 -8.1 17.3
16:45 1017 30.03 846 24.98 5.2 41.4 38 -8.1 17.5
16:50 1017 30.03 846 24.98 5.3 41.5 36 -8.6 16.5
16:55 1017 30.03 846 24.98 5.3 41.5 37 -8.4 16.9
17:00 1017 30.03 846 24.98 5.1 41.2 38 -8.1 17.4
17:05 1017 30.03 846 24.98 4.9 40.8 39 -7.9 17.9
17:10 1017 30.03 846 24.98 4.8 40.6 40 -7.7 18.1
17:15 1017 30.03 846 24.98 4.8 40.6 41 -7.4 18.7
17:20 1017 30.03 846 24.98 4.7 40.4 41 -7.5 18.5
17:25 1017 30.03 846 24.98 4.3 39.7 42 -7.4 18.7
17:30 1017 30.03 846 24.98 4.2 39.5 43 -7.3 18.9
17:35 1017 30.03 846 24.98 4 39.2 45 -6.9 19.6
17:40 1017 30.03 846 24.98 3.9 39.1 44 -7.3 18.9
17:45 1017 30.03 846 24.98 3.9 38.9 45 -7 19.4
17:50 1017 30.03 846 24.98 3.8 38.9 44 -7.4 18.7
17:55 1017 30.03 846 24.98 3.7 38.7 46 -6.8 19.7
18:00 1017 30.03 846 24.98 3.8 38.8 46 -6.9 19.6
18:05 1017 30.03 846 24.98 3.7 38.7 44 -7.4 18.7
18:10 1017 30.03 846 24.98 3.6 38.5 45 -7.4 18.7
18:15 1017 30.03 846 24.98 3.6 38.5 45 -7.2 19
18:20 1017 30.03 846 24.98 3.5 38.4 46 -7.1 19.2
18:25 1017 30.03 847 25.01 3.5 38.3 46 -7.1 19.1
18:30 1017 30.03 847 25.01 3.4 38.2 45 -7.4 18.7
18:35 1017 30.03 847 25.01 3.4 38.1 46 -7.1 19.2
18:40 1017 30.03 847 25.01 3.3 37.9 46 -7.2 19
18:45 1017 30.03 847 25.01 3.3 37.9 45 -7.6 18.3
18:50 1018 30.06 847 25.01 3.3 37.9 45 -7.6 18.3
18:55 1018 30.06 847 25.01 3.3 37.9 45 -7.5 18.4
19:00 1018 30.06 847 25.01 3.2 37.8 47 -7.1 19.2
19:05 1018 30.06 847 25.01 3.1 37.6 46 -7.4 18.6
19:10 1018 30.06 847 25.01 3 37.3 45 -7.7 18.1
19:15 1018 30.06 847 25.01 2.8 37.1 46 -7.7 18.2
19:20 1018 30.06 847 25.01 2.7 36.9 46 -7.6 18.3
19:25 1018 30.06 847 25.01 2.7 36.9 47 -7.4 18.7
19:30 1018 30.06 847 25.01 2.6 36.8 48 -7.3 18.8
19:35 1018 30.06 847 25.01 2.6 36.7 48 -7.4 18.8
19:40 1018 30.06 847 25.01 2.6 36.6 49 -7 19.3
19:45 1018 30.06 847 25.01 2.5 36.5 49 -7.2 19
19:50 1018 30.06 847 25.01 2.5 36.5 48 -7.4 18.7
19:55 1018 30.06 847 25.01 2.4 36.3 48 -7.6 18.3
20:00 1018 30.06 847 25.01 2.4 36.3 49 -7.4 18.7
20:05 1018 30.06 847 25.01 2.3 36.2 50 -7.1 19.2
20:10 1018 30.06 847 25.01 2.3 36.2 49 -7.3 18.9
20:15 1018 30.06 847 25.01 2.3 36.1 49 -7.5 18.5
20:20 1018 30.06 847 25.01 2.3 36.1 49 -7.4 18.7
20:25 1018 30.06 848 25.04 2.3 36.1 49 -7.2 19
20:30 1018 30.06 848 25.04 2.2 35.9 50 -7.2 19
20:35 1018 30.06 848 25.04 2.1 35.8 50 -7.2 19
20:40 1018 30.06 848 25.04 2.1 35.8 50 -7.3 18.8
20:45 1019 30.09 848 25.04 2.1 35.8 50 -7.3 18.9
20:50 1019 30.09 848 25.04 2 35.7 51 -7.1 19.3
20:55 1019 30.09 848 25.04 2 35.6 51 -7 19.4
21:00 1019 30.09 848 25.04 2 35.6 52 -6.8 19.8
21:05 1019 30.09 848 25.04 1.9 35.5 53 -6.8 19.8
21:10 1019 30.09 848 25.04 2 35.5 51 -7.1 19.3
21:15 1019 30.09 848 25.04 2 35.6 52 -6.8 19.7
21:20 1019 30.09 848 25.04 1.9 35.5 52 -6.8 19.8
21:25 1019 30.09 848 25.04 1.8 35.3 53 -6.7 19.9
21:30 1019 30.09 848 25.04 1.8 35.2 54 -6.6 20.1
21:35 1019 30.09 848 25.04 1.7 35.1 54 -6.5 20.3
21:40 1019 30.09 848 25.04 1.7 35.1 53 -6.9 19.5
21:45 1019 30.09 848 25.04 1.8 35.2 53 -6.8 19.7
21:50 1019 30.09 848 25.04 1.8 35.2 54 -6.7 20
21:55 1019 30.09 848 25.04 1.7 35.1 54 -6.5 20.3
22:00 1019 30.09 848 25.04 1.7 35 54 -6.7 19.9
22:05 1019 30.09 848 25.04 1.6 34.8 55 -6.6 20.2
22:10 1019 30.09 848 25.04 1.5 34.8 55 -6.5 20.3
22:15 1019 30.09 848 25.04 1.5 34.7 55 -6.5 20.4
22:20 1019 30.09 848 25.04 1.5 34.8 55 -6.6 20.2
22:25 1019 30.09 848 25.04 1.5 34.7 55 -6.6 20.1
22:30 1019 30.09 848 25.04 1.5 34.8 54 -6.8 19.8
22:35 1019 30.09 848 25.04 1.5 34.7 55 -6.6 20.1
22:40 1019 30.09 849 25.07 1.5 34.7 52 -7.2 19
22:45 1019 30.09 849 25.07 1.5 34.8 53 -7.1 19.1
22:50 1019 30.09 849 25.07 1.6 34.8 51 -7.5 18.5
22:55 1019 30.09 849 25.07 1.6 34.9 50 -7.7 18.2
23:00 1019 30.09 849 25.07 1.6 34.8 51 -7.4 18.7
23:05 1019 30.09 849 25.07 1.5 34.8 51 -7.5 18.4
23:10 1020 30.12 849 25.07 1.5 34.8 51 -7.4 18.6
23:15 1020 30.12 849 25.07 1.4 34.6 53 -7.2 19
23:20 1020 30.12 849 25.07 1.3 34.4 53 -7.2 19
23:25 1020 30.12 849 25.07 1.3 34.3 55 -6.9 19.6
23:30 1020 30.12 849 25.07 1.1 34 56 -6.7 20
23:35 1020 30.12 849 25.07 1 33.7 57 -6.7 20
23:40 1020 30.12 849 25.07 0.8 33.5 58 -6.5 20.4
23:45 1020 30.12 849 25.07 0.8 33.4 59 -6.4 20.4
23:50 1020 30.12 849 25.07 0.6 33.1 59 -6.4 20.5
23:55 1020 30.12 849 25.07 0.6 33 59 -6.5 20.3
24:00 1020 30.12 849 25.07 0.5 32.9 60 -6.4 20.4